createdAt,value
2022-09-10T00:00:58.522Z,101173.03
2022-09-10T00:03:03.118Z,101164.28
2022-09-10T00:05:10.080Z,101162.59
2022-09-10T00:07:15.063Z,101174.94
2022-09-10T00:09:18.964Z,101169.59
2022-09-10T00:11:22.402Z,101172.28
2022-09-10T00:13:26.150Z,101181.97
2022-09-10T00:15:29.747Z,101184.75
2022-09-10T00:17:33.872Z,101177.59
2022-09-10T00:19:37.588Z,101186.56
2022-09-10T00:21:41.397Z,101184.75
2022-09-10T00:23:46.833Z,101185.81
2022-09-10T00:25:52.263Z,101185.09
2022-09-10T00:27:55.717Z,101184.34
2022-09-10T00:30:00.557Z,101189.03
2022-09-10T00:32:04.804Z,101192.69
2022-09-10T00:34:09.311Z,101191.09
2022-09-10T00:36:17.084Z,101183.09
2022-09-10T00:38:21.276Z,101185.00
2022-09-10T00:40:26.843Z,101181.63
2022-09-10T00:42:30.852Z,101179.16
2022-09-10T00:44:57.594Z,101176.72
2022-09-10T00:47:01.725Z,101181.44
2022-09-10T00:49:11.626Z,101173.75
2022-09-10T00:51:15.512Z,101173.19
2022-09-10T00:53:23.331Z,101162.66
2022-09-10T00:55:29.626Z,101170.75
2022-09-10T00:57:33.688Z,101169.28
2022-09-10T00:59:37.800Z,101167.69
2022-09-10T01:01:42.275Z,101174.84
2022-09-10T01:03:47.806Z,101168.88
2022-09-10T01:05:52.682Z,101166.31
2022-09-10T01:07:57.138Z,101163.88
2022-09-10T01:10:03.550Z,101164.84
2022-09-10T01:12:22.389Z,101168.34
2022-09-10T01:14:45.486Z,101176.53
2022-09-10T01:16:59.382Z,101165.28
2022-09-10T01:19:18.793Z,101176.13
2022-09-10T01:21:26.071Z,101165.69
2022-09-10T01:24:03.005Z,101173.69
2022-09-10T01:26:20.177Z,101181.78
2022-09-10T01:28:31.802Z,101175.81
2022-09-10T01:30:40.047Z,101180.50
2022-09-10T01:32:53.789Z,101185.94
2022-09-10T01:35:06.979Z,101180.63
2022-09-10T01:37:21.723Z,101185.19
2022-09-10T01:39:27.375Z,101179.88
2022-09-10T01:41:32.289Z,101183.38
2022-09-10T01:43:37.905Z,101186.03
2022-09-10T01:45:52.592Z,101180.72
2022-09-10T01:48:10.257Z,101179.13
2022-09-10T01:50:26.597Z,101191.69
2022-09-10T01:52:42.379Z,101195.28
2022-09-10T01:55:00.394Z,101192.75
2022-09-10T01:57:16.361Z,101190.09
2022-09-10T01:59:28.987Z,101195.28
2022-09-10T02:01:39.775Z,101190.72
2022-09-10T02:03:47.901Z,101194.34
2022-09-10T02:05:54.447Z,101188.25
2022-09-10T02:08:02.020Z,101188.47
2022-09-10T02:10:09.469Z,101192.31
2022-09-10T02:12:21.128Z,101191.69
2022-09-10T02:14:33.804Z,101191.03
2022-09-10T02:16:58.823Z,101198.25
2022-09-10T02:19:03.722Z,101190.28
2022-09-10T02:21:08.299Z,101193.81
2022-09-10T02:23:13.498Z,101196.56
2022-09-10T02:25:17.507Z,101201.03
2022-09-10T02:27:20.804Z,101206.22
2022-09-10T02:29:24.676Z,101201.91
2022-09-10T02:31:29.835Z,101202.72
2022-09-10T02:33:33.108Z,101201.03
2022-09-10T02:35:37.805Z,101206.44
2022-09-10T02:37:43.277Z,101202.94
2022-09-10T02:39:47.853Z,101196.69
2022-09-10T02:41:51.424Z,101200.41
2022-09-10T02:43:54.702Z,101196.13
2022-09-10T02:45:58.362Z,101198.69
2022-09-10T02:48:04.429Z,101203.16
2022-09-10T02:50:10.046Z,101205.06
2022-09-10T02:52:13.460Z,101206.88
2022-09-10T02:54:16.789Z,101201.56
2022-09-10T02:56:20.717Z,101211.66
2022-09-10T02:58:23.934Z,101206.56
2022-09-10T03:00:27.375Z,101202.19
2022-09-10T03:02:30.825Z,101204.06
2022-09-10T03:04:35.467Z,101198.88
2022-09-10T03:06:40.275Z,101207.78
2022-09-10T03:08:43.608Z,101206.94
2022-09-10T03:10:46.870Z,101211.44
2022-09-10T03:12:50.264Z,101209.81
2022-09-10T03:14:53.551Z,101212.69
2022-09-10T03:17:00.317Z,101205.66
2022-09-10T03:19:03.680Z,101210.22
2022-09-10T03:21:15.000Z,101206.94
2022-09-10T03:23:18.298Z,101191.94
2022-09-10T03:25:22.899Z,101199.91
2022-09-10T03:27:26.345Z,101193.75
2022-09-10T03:29:31.185Z,101199.25
2022-09-10T03:31:36.147Z,101201.16
2022-09-10T03:33:39.958Z,101197.75
2022-09-10T03:35:43.932Z,101185.22
2022-09-10T03:37:49.215Z,101194.03
2022-09-10T03:39:53.201Z,101186.94
2022-09-10T03:41:56.568Z,101190.53
2022-09-10T03:43:59.850Z,101192.44
2022-09-10T03:46:03.778Z,101198.81
2022-09-10T03:48:07.083Z,101207.66
2022-09-10T03:50:10.894Z,101206.78
2022-09-10T03:52:14.376Z,101202.31
2022-09-10T03:54:20.900Z,101197.19
2022-09-10T03:56:24.173Z,101196.34
2022-09-10T03:58:28.769Z,101197.19
2022-09-10T04:00:32.004Z,101200.06
2022-09-10T04:02:36.861Z,101203.88
2022-09-10T04:04:40.071Z,101201.31
2022-09-10T04:06:45.550Z,101194.50
2022-09-10T04:08:52.152Z,101191.94
2022-09-10T04:11:03.284Z,101200.03
2022-09-10T04:13:07.168Z,101196.44
2022-09-10T04:15:13.422Z,101190.25
2022-09-10T04:17:18.122Z,101187.69
2022-09-10T04:19:22.030Z,101192.16
2022-09-10T04:21:26.436Z,101197.66
2022-09-10T04:23:30.343Z,101196.13
2022-09-10T04:25:33.677Z,101198.97
2022-09-10T04:27:38.729Z,101199.94
2022-09-10T04:29:43.126Z,101201.63
2022-09-10T04:31:46.925Z,101206.00
2022-09-10T04:33:53.367Z,101211.53
2022-09-10T04:36:00.581Z,101213.41
2022-09-10T04:38:04.095Z,101216.19
2022-09-10T04:40:09.427Z,101221.81
2022-09-10T04:42:15.517Z,101221.03
2022-09-10T04:44:20.443Z,101228.34
2022-09-10T04:46:24.138Z,101224.94
2022-09-10T04:48:29.654Z,101232.13
2022-09-10T04:50:32.833Z,101226.94
2022-09-10T04:52:53.229Z,101228.75
2022-09-10T04:54:56.742Z,101239.38
2022-09-10T04:57:01.328Z,101237.53
2022-09-10T04:59:05.250Z,101240.19
2022-09-10T05:01:14.060Z,101238.31
2022-09-10T05:03:19.766Z,101236.59
2022-09-10T05:05:23.502Z,101244.78
2022-09-10T05:07:26.906Z,101249.97
2022-09-10T05:09:31.488Z,101254.47
2022-09-10T05:11:36.905Z,101251.03
2022-09-10T05:13:40.616Z,101253.78
2022-09-10T05:15:44.081Z,101246.13
2022-09-10T05:17:49.399Z,101248.94
2022-09-10T05:19:52.593Z,101246.38
2022-09-10T05:21:56.571Z,101252.63
2022-09-10T05:24:00.803Z,101249.97
2022-09-10T05:26:04.095Z,101252.63
2022-09-10T05:28:07.511Z,101248.19
2022-09-10T05:30:11.871Z,101250.84
2022-09-10T05:32:15.322Z,101252.63
2022-09-10T05:34:20.601Z,101254.47
2022-09-10T05:36:24.413Z,101255.41
2022-09-10T05:38:27.799Z,101259.97
2022-09-10T05:40:31.640Z,101262.72
2022-09-10T05:42:35.738Z,101262.72
2022-09-10T05:44:39.544Z,101263.66
2022-09-10T05:46:42.993Z,101263.66
2022-09-10T05:48:49.226Z,101261.94
2022-09-10T05:50:55.505Z,101262.78
2022-09-10T05:52:58.736Z,101267.25
2022-09-10T05:55:03.488Z,101267.34
2022-09-10T05:57:07.179Z,101276.34
2022-09-10T05:59:12.045Z,101278.28
2022-09-10T06:01:18.764Z,101293.22
2022-09-10T06:03:22.425Z,101295.03
2022-09-10T06:05:26.728Z,101294.19
2022-09-10T06:07:32.322Z,101300.25
2022-09-10T06:09:35.515Z,101297.59
2022-09-10T06:11:43.399Z,101294.66
2022-09-10T06:13:47.416Z,101298.06
2022-09-10T06:15:50.654Z,101290.84
2022-09-10T06:17:58.012Z,101287.06
2022-09-10T06:20:01.482Z,101292.94
2022-09-10T06:22:11.136Z,101299.78
2022-09-10T06:24:18.872Z,101301.28
2022-09-10T06:26:22.825Z,101306.22
2022-09-10T06:28:29.710Z,101309.81
2022-09-10T06:30:32.913Z,101302.78
2022-09-10T06:32:36.413Z,101310.91
2022-09-10T06:34:39.930Z,101309.84
2022-09-10T06:36:45.780Z,101306.50
2022-09-10T06:38:49.666Z,101309.28
2022-09-10T06:40:55.575Z,101311.63
2022-09-10T06:43:02.627Z,101306.38
2022-09-10T06:45:29.176Z,101306.66
2022-09-10T06:50:20.311Z,101303.59
2022-09-10T06:52:25.046Z,101307.59
2022-09-10T06:54:35.526Z,101311.47
2022-09-10T06:56:54.702Z,101311.56
2022-09-10T06:59:02.184Z,101311.91
2022-09-10T07:01:14.858Z,101320.47
2022-09-10T07:03:23.339Z,101325.19
2022-09-10T07:05:27.883Z,101332.06
2022-09-10T07:07:31.487Z,101329.19
2022-09-10T07:09:35.030Z,101328.41
2022-09-10T07:11:41.574Z,101319.03
2022-09-10T07:13:51.899Z,101334.47
2022-09-10T07:15:56.872Z,101339.03
2022-09-10T07:18:00.118Z,101336.34
2022-09-10T07:20:04.440Z,101344.97
2022-09-10T07:22:21.777Z,101342.84
2022-09-10T07:24:25.704Z,101341.50
2022-09-10T07:26:57.855Z,101345.47
2022-09-10T07:29:03.446Z,101343.22
2022-09-10T07:31:13.826Z,101349.34
2022-09-10T07:33:18.255Z,101345.81
2022-09-10T07:35:22.044Z,101357.03
2022-09-10T07:37:26.892Z,101348.00
2022-09-10T07:39:31.899Z,101350.22
2022-09-10T07:41:36.401Z,101353.91
2022-09-10T07:43:44.979Z,101351.97
2022-09-10T07:45:51.264Z,101358.00
2022-09-10T07:47:55.040Z,101350.22
2022-09-10T07:50:00.143Z,101348.84
2022-09-10T07:52:05.146Z,101356.50
2022-09-10T07:54:17.448Z,101359.34
2022-09-10T07:56:27.542Z,101360.63
2022-09-10T07:58:32.513Z,101352.22
2022-09-10T08:00:36.831Z,101356.91
2022-09-10T08:02:46.747Z,101352.66
2022-09-10T08:04:54.738Z,101356.16
2022-09-10T08:06:59.447Z,101351.44
2022-09-10T08:09:07.381Z,101355.53
2022-09-10T08:11:16.803Z,101352.31
2022-09-10T08:13:22.865Z,101355.19
2022-09-10T08:15:26.736Z,101362.44
2022-09-10T08:17:31.403Z,101359.53
2022-09-10T08:19:37.178Z,101364.19
2022-09-10T08:21:41.137Z,101363.81
2022-09-10T08:23:49.507Z,101360.59
2022-09-10T08:25:53.546Z,101361.34
2022-09-10T08:27:58.131Z,101358.94
2022-09-10T08:30:01.750Z,101362.97
2022-09-10T08:32:06.462Z,101358.72
2022-09-10T08:34:14.171Z,101357.50
2022-09-10T08:36:24.342Z,101356.66
2022-09-10T08:38:31.870Z,101362.38
2022-09-10T08:40:38.883Z,101358.38
2022-09-10T08:42:46.971Z,101360.94
2022-09-10T08:44:56.638Z,101370.31
2022-09-10T08:47:26.542Z,101367.78
2022-09-10T08:49:38.506Z,101372.88
2022-09-10T08:51:50.675Z,101361.44
2022-09-10T08:54:00.014Z,101376.03
2022-09-10T08:56:06.635Z,101376.88
2022-09-10T08:58:19.328Z,101376.66
2022-09-10T09:00:26.608Z,101391.72
2022-09-10T09:02:48.994Z,101392.09
2022-09-10T09:05:00.580Z,101389.28
2022-09-10T09:07:14.467Z,101393.63
2022-09-10T09:09:20.506Z,101394.50
2022-09-10T09:11:34.536Z,101397.38
2022-09-10T09:13:52.735Z,101395.31
2022-09-10T09:16:07.603Z,101399.38
2022-09-10T09:18:23.056Z,101396.94
2022-09-10T09:20:39.307Z,101394.91
2022-09-10T09:22:52.629Z,101391.66
2022-09-10T09:25:10.055Z,101393.47
2022-09-10T09:27:17.744Z,101387.25
2022-09-10T09:29:28.727Z,101398.44
2022-09-10T09:31:40.787Z,101392.41
2022-09-10T09:33:48.270Z,101398.97
2022-09-10T09:35:54.965Z,101402.84
2022-09-10T09:38:16.759Z,101398.22
2022-09-10T09:40:33.814Z,101400.81
2022-09-10T09:42:46.635Z,101409.72
2022-09-10T09:44:57.527Z,101401.69
2022-09-10T09:47:03.260Z,101409.19
2022-09-10T09:49:16.106Z,101410.91
2022-09-10T09:51:22.213Z,101408.72
2022-09-10T09:53:29.414Z,101406.31
2022-09-10T09:55:37.265Z,101408.16
2022-09-10T09:57:43.046Z,101410.22
2022-09-10T09:59:46.941Z,101403.66
2022-09-10T10:01:51.973Z,101420.56
2022-09-10T10:04:01.963Z,101402.19
2022-09-10T10:06:08.196Z,101401.22
2022-09-10T10:08:31.543Z,101410.09
2022-09-10T10:10:35.545Z,101410.28
2022-09-10T10:12:49.715Z,101416.53
2022-09-10T10:14:53.509Z,101411.75
2022-09-10T10:17:00.544Z,101414.13
2022-09-10T10:19:05.437Z,101414.16
2022-09-10T10:21:17.576Z,101410.75
2022-09-10T10:23:36.767Z,101412.66
2022-09-10T10:25:41.593Z,101415.28
2022-09-10T10:27:47.947Z,101413.97
2022-09-10T10:29:57.318Z,101411.28
2022-09-10T10:32:05.465Z,101405.25
2022-09-10T10:34:29.822Z,101402.75
2022-09-10T10:36:53.538Z,101394.34
2022-09-10T10:39:09.259Z,101402.81
2022-09-10T10:41:47.259Z,101400.44
2022-09-10T10:44:01.679Z,101399.91
2022-09-10T10:46:11.202Z,101395.06
2022-09-10T10:48:23.931Z,101396.00
2022-09-10T10:50:35.003Z,101395.66
2022-09-10T10:52:47.531Z,101408.41
2022-09-10T10:55:07.805Z,101394.19
2022-09-10T10:57:24.597Z,101397.25
2022-09-10T10:59:45.410Z,101397.06
2022-09-10T11:01:54.659Z,101390.59
2022-09-10T11:04:09.049Z,101396.56
2022-09-10T11:06:16.253Z,101390.03
2022-09-10T11:08:36.086Z,101383.97
2022-09-10T11:10:45.597Z,101380.88
2022-09-10T11:12:56.318Z,101393.81
2022-09-10T11:17:59.999Z,101386.22
2022-09-10T11:22:53.585Z,101387.78
2022-09-10T11:25:04.907Z,101384.34
2022-09-10T11:27:15.996Z,101393.44
2022-09-10T11:29:42.549Z,101391.44
2022-09-10T11:31:50.638Z,101390.63
2022-09-10T11:34:04.376Z,101384.66
2022-09-10T11:36:17.076Z,101376.41
2022-09-10T11:38:26.287Z,101379.41
2022-09-10T11:40:37.859Z,101382.94
2022-09-10T11:42:59.037Z,101381.28
2022-09-10T11:45:10.939Z,101378.50
2022-09-10T11:47:19.510Z,101380.38
2022-09-10T11:49:26.721Z,101374.56
2022-09-10T11:51:35.345Z,101375.59
2022-09-10T11:53:39.139Z,101376.19
2022-09-10T11:55:54.607Z,101370.91
2022-09-10T11:58:07.710Z,101371.94
2022-09-10T12:00:17.344Z,101369.81
2022-09-10T12:02:57.509Z,101375.06
2022-09-10T12:05:13.014Z,101372.38
2022-09-10T12:07:30.329Z,101372.22
2022-09-10T12:09:42.465Z,101368.28
2022-09-10T12:11:53.599Z,101370.22
2022-09-10T12:13:59.180Z,101371.09
2022-09-10T12:16:10.726Z,101365.00
2022-09-10T12:18:18.674Z,101371.06
2022-09-10T12:20:29.493Z,101366.63
2022-09-10T12:22:37.222Z,101362.81
2022-09-10T12:24:41.174Z,101366.28
2022-09-10T12:26:46.866Z,101364.84
2022-09-10T12:29:05.039Z,101366.41
2022-09-10T12:31:09.099Z,101373.59
2022-09-10T12:33:37.967Z,101369.03
2022-09-10T12:35:47.075Z,101373.81
2022-09-10T12:37:50.912Z,101374.25
2022-09-10T12:40:32.686Z,101368.50
2022-09-10T12:42:37.078Z,101370.41
2022-09-10T12:44:51.146Z,101368.97
2022-09-10T12:47:28.165Z,101374.34
2022-09-10T12:49:31.759Z,101372.09
2022-09-10T12:51:47.269Z,101375.25
2022-09-10T12:54:15.135Z,101365.75
2022-09-10T12:57:00.902Z,101375.84
2022-09-10T12:59:19.538Z,101385.53
2022-09-10T13:01:40.574Z,101387.75
2022-09-10T13:03:54.807Z,101379.88
2022-09-10T13:06:03.422Z,101382.94
2022-09-10T13:08:18.129Z,101388.31
2022-09-10T13:10:24.638Z,101375.22
2022-09-10T13:12:28.840Z,101371.16
2022-09-10T13:14:36.285Z,101373.72
2022-09-10T13:16:43.561Z,101367.50
2022-09-10T13:18:48.482Z,101379.59
2022-09-10T13:20:52.079Z,101381.97
2022-09-10T13:22:58.521Z,101381.50
2022-09-10T13:25:07.523Z,101383.63
2022-09-10T13:27:22.805Z,101377.84
2022-09-10T13:29:34.074Z,101374.53
2022-09-10T13:31:43.756Z,101371.75
2022-09-10T13:34:21.166Z,101370.59
2022-09-10T13:36:34.533Z,101367.88
2022-09-10T13:38:59.699Z,101377.84
2022-09-10T13:41:23.961Z,101375.38
2022-09-10T13:43:48.969Z,101375.38
2022-09-10T13:45:55.677Z,101368.84
2022-09-10T13:48:04.027Z,101377.97
2022-09-10T13:50:15.687Z,101365.69
2022-09-10T13:52:23.814Z,101373.66
2022-09-10T13:54:35.791Z,101363.69
2022-09-10T13:56:44.926Z,101366.75
2022-09-10T13:58:52.572Z,101364.66
2022-09-10T14:00:58.384Z,101365.31
2022-09-10T14:03:03.364Z,101367.63
2022-09-10T14:05:24.512Z,101361.94
2022-09-10T14:07:29.979Z,101366.44
2022-09-10T14:09:34.962Z,101368.13
2022-09-10T14:11:42.742Z,101357.44
2022-09-10T14:13:52.077Z,101360.50
2022-09-10T14:16:01.660Z,101365.13
2022-09-10T14:18:06.960Z,101363.31
2022-09-10T14:20:19.662Z,101367.44
2022-09-10T14:22:26.098Z,101362.53
2022-09-10T14:24:32.011Z,101370.81
2022-09-10T14:26:35.846Z,101362.78
2022-09-10T14:28:50.876Z,101368.41
2022-09-10T14:31:20.726Z,101363.69
2022-09-10T14:33:33.005Z,101366.72
2022-09-10T14:35:40.848Z,101367.81
2022-09-10T14:37:44.714Z,101360.06
2022-09-10T14:39:49.243Z,101366.50
2022-09-10T14:42:11.665Z,101363.44
2022-09-10T14:44:29.875Z,101361.25
2022-09-10T14:46:54.372Z,101368.44
2022-09-10T14:49:11.491Z,101368.56
2022-09-10T14:51:17.751Z,101362.25
2022-09-10T14:53:21.227Z,101356.53
2022-09-10T14:55:27.212Z,101359.09
2022-09-10T14:57:30.775Z,101360.78
2022-09-10T14:59:38.785Z,101359.97
2022-09-10T15:01:43.195Z,101359.56
2022-09-10T15:03:46.887Z,101359.31
2022-09-10T15:05:52.035Z,101362.13
2022-09-10T15:07:55.621Z,101354.97
2022-09-10T15:09:59.278Z,101362.00
2022-09-10T15:12:07.249Z,101364.78
2022-09-10T15:14:21.173Z,101360.66
2022-09-10T15:16:24.988Z,101356.81
2022-09-10T15:18:28.520Z,101360.22
2022-09-10T15:20:32.044Z,101359.84
2022-09-10T15:22:37.112Z,101365.06
2022-09-10T15:25:05.572Z,101371.84
2022-09-10T15:27:05.120Z,101368.47
2022-09-10T15:29:08.918Z,101366.25
2022-09-10T15:31:12.849Z,101363.69
2022-09-10T15:33:16.859Z,101354.97
2022-09-10T15:35:20.292Z,101360.66
2022-09-10T15:37:24.537Z,101350.09
2022-09-10T15:39:30.168Z,101344.75
2022-09-10T15:41:34.693Z,101349.84
2022-09-10T15:43:41.477Z,101350.44
2022-09-10T15:45:45.270Z,101348.88
2022-09-10T15:47:48.832Z,101351.81
2022-09-10T15:49:53.818Z,101347.16
2022-09-10T15:51:57.378Z,101345.50
2022-09-10T15:54:04.926Z,101349.97
2022-09-10T15:56:11.974Z,101340.25
2022-09-10T15:58:15.883Z,101343.28
2022-09-10T16:00:20.300Z,101342.94
2022-09-10T16:02:23.992Z,101347.31
2022-09-10T16:04:30.613Z,101355.34
2022-09-10T16:06:38.303Z,101343.81
2022-09-10T16:08:42.058Z,101346.50
2022-09-10T16:10:45.799Z,101344.66
2022-09-10T16:12:50.687Z,101348.28
2022-09-10T16:14:54.877Z,101344.66
2022-09-10T16:16:59.022Z,101343.69
2022-09-10T16:19:02.780Z,101338.47
2022-09-10T16:21:12.202Z,101349.16
2022-09-10T16:23:17.393Z,101346.50
2022-09-10T16:25:21.587Z,101346.97
2022-09-10T16:27:25.168Z,101340.66
2022-09-10T16:29:30.337Z,101340.91
2022-09-10T16:31:35.579Z,101343.44
2022-09-10T16:33:39.183Z,101345.13
2022-09-10T16:35:42.972Z,101352.44
2022-09-10T16:37:46.359Z,101349.03
2022-09-10T16:39:50.205Z,101341.13
2022-09-10T16:41:53.797Z,101346.75
2022-09-10T16:43:59.902Z,101342.13
2022-09-10T16:46:05.680Z,101343.69
2022-09-10T16:48:09.778Z,101345.38
2022-09-10T16:50:17.296Z,101338.31
2022-09-10T16:52:20.905Z,101344.53
2022-09-10T16:54:26.871Z,101343.22
2022-09-10T16:56:33.781Z,101339.09
2022-09-10T16:58:39.061Z,101346.25
2022-09-10T17:00:42.997Z,101347.97
2022-09-10T17:02:48.146Z,101350.38
2022-09-10T17:04:52.797Z,101347.56
2022-09-10T17:06:56.598Z,101346.75
2022-09-10T17:09:01.996Z,101352.22
2022-09-10T17:11:05.635Z,101349.53
2022-09-10T17:13:11.508Z,101347.34
2022-09-10T17:15:15.572Z,101354.38
2022-09-10T17:17:19.179Z,101349.78
2022-09-10T17:19:26.677Z,101347.94
2022-09-10T17:21:32.710Z,101340.03
2022-09-10T17:23:36.555Z,101351.81
2022-09-10T17:25:40.964Z,101337.38
2022-09-10T17:27:44.538Z,101346.38
2022-09-10T17:29:48.157Z,101346.38
2022-09-10T17:31:52.867Z,101351.97
2022-09-10T17:33:57.178Z,101349.78
2022-09-10T17:36:04.382Z,101354.41
2022-09-10T17:38:08.374Z,101359.50
2022-09-10T17:40:13.176Z,101356.69
2022-09-10T17:42:17.152Z,101364.34
2022-09-10T17:44:21.355Z,101369.81
2022-09-10T17:46:25.112Z,101373.44
2022-09-10T17:48:30.566Z,101363.72
2022-09-10T17:50:34.731Z,101362.38
2022-09-10T17:52:40.948Z,101367.97
2022-09-10T17:54:44.786Z,101361.88
2022-09-10T17:56:48.583Z,101357.75
2022-09-10T17:58:57.738Z,101364.53
2022-09-10T18:01:02.637Z,101370.25
2022-09-10T18:03:10.015Z,101368.53
2022-09-10T18:05:13.811Z,101371.09
2022-09-10T18:07:17.418Z,101368.53
2022-09-10T18:09:23.801Z,101367.06
2022-09-10T18:11:30.252Z,101368.41
2022-09-10T18:13:34.657Z,101377.00
2022-09-10T18:15:42.389Z,101372.72
2022-09-10T18:17:46.076Z,101365.91
2022-09-10T18:19:50.458Z,101365.53
2022-09-10T18:21:54.088Z,101369.53
2022-09-10T18:24:00.534Z,101368.81
2022-09-10T18:26:14.886Z,101370.97
2022-09-10T18:28:19.303Z,101372.28
2022-09-10T18:30:22.836Z,101363.75
2022-09-10T18:32:26.891Z,101366.75
2022-09-10T18:34:32.294Z,101356.31
2022-09-10T18:36:36.037Z,101355.78
2022-09-10T18:38:39.677Z,101359.72
2022-09-10T18:40:43.378Z,101364.34
2022-09-10T18:42:48.458Z,101359.25
2022-09-10T18:44:52.280Z,101355.94
2022-09-10T18:46:56.608Z,101359.81
2022-09-10T18:49:01.333Z,101356.63
2022-09-10T18:51:07.185Z,101346.19
2022-09-10T18:53:10.966Z,101359.75
2022-09-10T18:55:14.783Z,101360.94
2022-09-10T18:57:18.768Z,101366.47
2022-09-10T18:59:25.476Z,101360.53
2022-09-10T19:01:31.336Z,101370.13
2022-09-10T19:03:39.333Z,101362.31
2022-09-10T19:05:43.027Z,101365.84
2022-09-10T19:07:46.894Z,101366.56
2022-09-10T19:09:51.158Z,101366.69
2022-09-10T19:11:56.918Z,101370.53
2022-09-10T19:14:02.466Z,101370.78
2022-09-10T19:16:08.093Z,101377.19
2022-09-10T19:18:12.001Z,101376.66
2022-09-10T19:20:15.890Z,101373.34
2022-09-10T19:22:19.696Z,101383.28
2022-09-10T19:24:44.032Z,101376.47
2022-09-10T19:26:51.160Z,101385.41
2022-09-10T19:28:58.958Z,101380.94
2022-09-10T19:31:05.209Z,101386.38
2022-09-10T19:33:10.277Z,101385.53
2022-09-10T19:35:14.752Z,101386.47
2022-09-10T19:37:19.684Z,101383.19
2022-09-10T19:39:23.435Z,101383.19
2022-09-10T19:41:27.398Z,101379.78
2022-09-10T19:43:31.220Z,101380.00
2022-09-10T19:45:35.935Z,101386.38
2022-09-10T19:47:40.465Z,101382.13
2022-09-10T19:49:45.445Z,101389.38
2022-09-10T19:51:49.218Z,101390.44
2022-09-10T19:53:52.870Z,101394.91
2022-09-10T19:55:56.538Z,101388.84
2022-09-10T19:58:00.287Z,101393.31
2022-09-10T20:00:04.402Z,101393.31
2022-09-10T20:02:15.239Z,101381.09
2022-09-10T20:04:19.137Z,101388.31
2022-09-10T20:06:25.625Z,101393.00
2022-09-10T20:08:29.368Z,101385.22
2022-09-10T20:10:33.842Z,101392.38
2022-09-10T20:12:37.574Z,101386.16
2022-09-10T20:14:41.253Z,101383.63
2022-09-10T20:16:46.835Z,101386.38
2022-09-10T20:18:50.398Z,101381.16
2022-09-10T20:20:54.209Z,101384.06
2022-09-10T20:23:01.670Z,101381.69
2022-09-10T20:25:06.158Z,101371.25
2022-09-10T20:27:09.996Z,101388.31
2022-09-10T20:29:15.699Z,101368.94
2022-09-10T20:31:19.726Z,101373.50
2022-09-10T20:33:23.572Z,101372.75
2022-09-10T20:35:27.226Z,101377.28
2022-09-10T20:37:31.237Z,101380.16
2022-09-10T20:39:36.653Z,101373.13
2022-09-10T20:41:40.830Z,101374.00
2022-09-10T20:43:44.637Z,101373.13
2022-09-10T20:45:49.570Z,101369.53
2022-09-10T20:47:53.183Z,101369.53
2022-09-10T20:49:57.198Z,101356.19
2022-09-10T20:52:00.769Z,101373.91
2022-09-10T20:54:05.848Z,101379.88
2022-09-10T20:56:13.199Z,101367.22
2022-09-10T20:58:17.978Z,101373.28
2022-09-10T21:00:21.786Z,101362.72
2022-09-10T21:02:26.465Z,101363.72
2022-09-10T21:04:30.544Z,101368.28
2022-09-10T21:06:35.828Z,101362.00
2022-09-10T21:08:40.838Z,101372.53
2022-09-10T21:10:44.888Z,101365.28
2022-09-10T21:12:49.887Z,101371.47
2022-09-10T21:14:54.123Z,101372.09
2022-09-10T21:16:58.182Z,101363.03
2022-09-10T21:19:03.167Z,101357.59
2022-09-10T21:21:08.278Z,101360.09
2022-09-10T21:23:11.956Z,101361.78
2022-09-10T21:25:16.456Z,101354.75
2022-09-10T21:27:20.555Z,101360.94
2022-09-10T21:29:25.361Z,101366.38
2022-09-10T21:31:30.356Z,101356.78
2022-09-10T21:33:34.968Z,101357.72
2022-09-10T21:35:39.178Z,101361.38
2022-09-10T21:37:43.006Z,101361.44
2022-09-10T21:39:46.883Z,101357.09
2022-09-10T21:41:52.046Z,101357.09
2022-09-10T21:43:56.101Z,101356.34
2022-09-10T21:46:04.512Z,101358.28
2022-09-10T21:48:08.074Z,101363.72
2022-09-10T21:50:11.945Z,101360.16
2022-09-10T21:52:15.732Z,101357.63
2022-09-10T21:54:22.113Z,101355.06
2022-09-10T21:56:27.966Z,101362.25
2022-09-10T21:58:33.824Z,101364.19
2022-09-10T22:00:37.575Z,101373.13
2022-09-10T22:02:43.370Z,101376.00
2022-09-10T22:04:47.072Z,101381.34
2022-09-10T22:06:50.898Z,101381.34
2022-09-10T22:08:58.574Z,101384.09
2022-09-10T22:11:06.895Z,101378.88
2022-09-10T22:13:11.802Z,101375.47
2022-09-10T22:15:15.633Z,101371.19
2022-09-10T22:17:19.989Z,101372.25
2022-09-10T22:19:27.510Z,101371.41
2022-09-10T22:21:31.727Z,101370.97
2022-09-10T22:23:37.970Z,101363.72
2022-09-10T22:25:41.938Z,101366.91
2022-09-10T22:27:45.467Z,101369.63
2022-09-10T22:29:49.419Z,101371.34
2022-09-10T22:31:53.065Z,101370.28
2022-09-10T22:33:58.840Z,101370.94
2022-09-10T22:36:15.389Z,101369.91
2022-09-10T22:38:19.736Z,101374.06
2022-09-10T22:40:24.583Z,101375.63
2022-09-10T22:42:28.301Z,101365.97
2022-09-10T22:44:31.842Z,101365.09
2022-09-10T22:46:36.923Z,101374.06
2022-09-10T22:48:42.691Z,101371.28
2022-09-10T22:50:47.298Z,101369.47
2022-09-10T22:52:52.281Z,101372.13
2022-09-10T22:54:55.969Z,101374.78
2022-09-10T22:56:59.773Z,101371.41
2022-09-10T22:59:04.098Z,101368.75
2022-09-10T23:01:09.283Z,101374.06
2022-09-10T23:03:13.453Z,101366.06
2022-09-10T23:05:17.360Z,101367.13
2022-09-10T23:07:21.991Z,101367.31
2022-09-10T23:09:27.190Z,101373.72
2022-09-10T23:11:32.042Z,101367.75
2022-09-10T23:13:36.192Z,101365.19
2022-09-10T23:15:40.109Z,101363.69
2022-09-10T23:17:44.010Z,101361.03
2022-09-10T23:19:48.299Z,101361.22
2022-09-10T23:21:54.027Z,101360.47
2022-09-10T23:23:59.821Z,101365.13
2022-09-10T23:26:09.601Z,101358.97
2022-09-10T23:28:13.052Z,101360.88
2022-09-10T23:30:17.370Z,101365.34
2022-09-10T23:32:20.926Z,101359.28
2022-09-10T23:34:24.283Z,101363.84
2022-09-10T23:36:28.952Z,101354.34
2022-09-10T23:38:33.513Z,101353.69
2022-09-10T23:40:37.264Z,101348.38
2022-09-10T23:42:41.936Z,101341.53
2022-09-10T23:44:45.347Z,101342.53
2022-09-10T23:46:48.634Z,101338.25
2022-09-10T23:48:52.455Z,101344.63
2022-09-10T23:50:55.882Z,101342.06
2022-09-10T23:52:59.722Z,101352.88
2022-09-10T23:55:02.931Z,101350.34
2022-09-10T23:57:06.569Z,101343.41
2022-09-10T23:59:11.548Z,101348.81
